createdAt,value
2023-02-16T00:04:02.913Z,41.93
2023-02-16T00:09:07.029Z,41.89
2023-02-16T00:14:11.153Z,41.92
2023-02-16T00:19:18.885Z,42.15
2023-02-16T00:24:23.154Z,42.47
2023-02-16T00:29:26.931Z,42.34
2023-02-16T00:34:32.160Z,42.41
2023-02-16T00:39:36.916Z,42.59
2023-02-16T00:44:41.645Z,42.78
2023-02-16T00:49:44.449Z,43.14
2023-02-16T00:54:48.607Z,42.93
2023-02-16T00:59:53.891Z,43.05
2023-02-16T01:04:56.712Z,43.07
2023-02-16T01:10:18.642Z,42.85
2023-02-16T01:15:23.106Z,43.04
2023-02-16T01:20:26.669Z,43.31
2023-02-16T01:25:30.856Z,43.56
2023-02-16T01:30:33.759Z,43.51
2023-02-16T01:35:36.552Z,43.75
2023-02-16T01:40:42.056Z,43.92
2023-02-16T01:45:44.960Z,43.84
2023-02-16T01:50:49.931Z,44.02
2023-02-16T01:55:56.480Z,44.16
2023-02-16T02:01:36.785Z,44.19
2023-02-16T02:06:39.614Z,44.25
2023-02-16T02:11:46.027Z,44.25
2023-02-16T02:16:54.729Z,44.40
2023-02-16T02:22:39.557Z,44.61
2023-02-16T02:27:43.761Z,44.66
2023-02-16T02:32:53.095Z,44.81
2023-02-16T02:37:57.700Z,44.68
2023-02-16T02:43:06.245Z,44.67
2023-02-16T02:48:09.796Z,44.84
2023-02-16T02:53:14.296Z,45.13
2023-02-16T02:58:36.771Z,45.16
2023-02-16T03:03:42.140Z,45.02
2023-02-16T03:08:47.034Z,45.37
2023-02-16T03:13:52.539Z,45.79
2023-02-16T03:19:12.841Z,45.75
2023-02-16T03:24:40.035Z,45.70
2023-02-16T03:29:44.166Z,45.95
2023-02-16T03:34:46.917Z,45.91
2023-02-16T03:40:07.404Z,46.10
2023-02-16T03:45:11.736Z,46.24
2023-02-16T03:50:14.621Z,46.46
2023-02-16T03:55:17.816Z,46.50
2023-02-16T04:00:22.592Z,46.50
2023-02-16T04:05:25.506Z,46.89
2023-02-16T04:10:28.495Z,46.63
2023-02-16T04:15:32.931Z,46.82
2023-02-16T04:20:35.961Z,47.11
2023-02-16T04:25:38.795Z,47.35
2023-02-16T04:30:43.036Z,47.31
2023-02-16T04:35:45.965Z,47.36
2023-02-16T04:40:48.717Z,47.29
2023-02-16T04:45:53.144Z,47.54
2023-02-16T04:50:56.008Z,47.23
2023-02-16T04:55:58.769Z,47.14
2023-02-16T05:01:03.598Z,47.25
2023-02-16T05:06:06.950Z,47.33
2023-02-16T05:11:27.139Z,47.29
2023-02-16T05:16:31.257Z,47.26
2023-02-16T05:21:35.214Z,47.64
2023-02-16T05:26:39.104Z,47.33
2023-02-16T05:31:43.275Z,47.31
2023-02-16T05:36:46.166Z,47.39
2023-02-16T05:41:49.704Z,47.58
2023-02-16T05:46:53.800Z,47.44
2023-02-16T05:51:56.677Z,47.40
2023-02-16T05:56:59.428Z,47.70
2023-02-16T06:02:03.657Z,47.47
2023-02-16T06:07:06.553Z,47.64
2023-02-16T06:12:09.710Z,47.31
2023-02-16T06:17:13.882Z,47.70
2023-02-16T06:22:16.705Z,47.45
2023-02-16T06:27:19.462Z,47.52
2023-02-16T06:32:23.756Z,47.71
2023-02-16T06:37:26.650Z,47.53
2023-02-16T06:42:29.496Z,47.72
2023-02-16T06:47:33.720Z,47.56
2023-02-16T06:52:36.499Z,47.52
2023-02-16T06:57:39.239Z,47.49
2023-02-16T07:02:43.879Z,47.51
2023-02-16T07:07:46.638Z,47.67
2023-02-16T07:12:49.561Z,47.36
2023-02-16T07:17:53.709Z,47.52
2023-02-16T07:22:56.529Z,47.44
2023-02-16T07:27:59.328Z,47.68
2023-02-16T07:33:03.560Z,47.59
2023-02-16T07:38:06.625Z,47.62
2023-02-16T07:43:10.580Z,47.40
2023-02-16T07:48:14.823Z,47.60
2023-02-16T07:53:18.051Z,47.38
2023-02-16T07:58:28.273Z,47.41
2023-02-16T08:03:32.433Z,34.71
2023-02-16T08:08:35.201Z,33.68
2023-02-16T08:13:38.030Z,34.57
2023-02-16T08:18:42.604Z,35.28
2023-02-16T08:23:47.534Z,37.98
2023-02-16T08:28:50.582Z,37.56
2023-02-16T08:33:55.021Z,37.57
2023-02-16T08:38:57.787Z,37.72
2023-02-16T08:44:01.156Z,37.93
2023-02-16T08:49:05.297Z,38.72
2023-02-16T08:54:08.885Z,38.83
2023-02-16T08:59:11.641Z,39.00
2023-02-16T09:04:16.125Z,38.97
2023-02-16T09:09:19.165Z,38.98
2023-02-16T09:14:23.098Z,39.51
2023-02-16T09:19:28.200Z,39.53
2023-02-16T09:24:31.021Z,40.00
2023-02-16T09:29:35.203Z,39.87
2023-02-16T09:34:39.356Z,40.11
2023-02-16T09:39:42.121Z,40.22
2023-02-16T09:44:50.143Z,40.17
2023-02-16T09:49:56.864Z,40.47
2023-02-16T09:55:00.483Z,40.87
2023-02-16T10:00:08.610Z,40.21
2023-02-16T10:05:18.242Z,40.23
2023-02-16T10:10:23.060Z,40.48
2023-02-16T10:15:27.021Z,40.08
2023-02-16T10:20:33.254Z,40.18
2023-02-16T10:25:40.432Z,40.43
2023-02-16T10:30:44.242Z,41.01
2023-02-16T10:35:49.247Z,41.65
2023-02-16T10:40:55.116Z,41.40
2023-02-16T10:45:59.136Z,41.48
2023-02-16T10:51:04.882Z,41.36
2023-02-16T10:56:37.225Z,41.30
2023-02-16T11:01:41.012Z,41.55
2023-02-16T11:06:45.403Z,41.82
2023-02-16T11:11:48.501Z,41.75
2023-02-16T11:16:52.199Z,42.02
2023-02-16T11:21:56.945Z,42.78
2023-02-16T11:27:04.499Z,42.60
2023-02-16T11:32:08.032Z,42.96
2023-02-16T11:37:17.101Z,42.58
2023-02-16T11:42:29.258Z,42.53
2023-02-16T11:47:33.062Z,42.85
2023-02-16T11:52:37.404Z,42.85
2023-02-16T11:57:40.709Z,42.94
2023-02-16T12:03:06.627Z,42.68
2023-02-16T12:08:24.866Z,42.61
2023-02-16T12:13:30.829Z,42.76
2023-02-16T12:18:37.797Z,42.89
2023-02-16T12:23:43.590Z,42.61
2023-02-16T12:28:49.332Z,42.49
2023-02-16T12:33:54.709Z,42.04
2023-02-16T12:39:04.714Z,42.54
2023-02-16T12:44:09.745Z,42.43
2023-02-16T12:49:16.358Z,42.19
2023-02-16T12:54:22.493Z,41.94
2023-02-16T12:59:27.286Z,42.09
2023-02-16T13:04:36.248Z,41.82
2023-02-16T13:09:42.225Z,42.07
2023-02-16T13:14:45.165Z,42.04
2023-02-16T13:19:48.102Z,41.96
2023-02-16T13:24:59.350Z,41.94
2023-02-16T13:30:08.886Z,41.88
2023-02-16T13:35:40.739Z,42.15
2023-02-16T13:41:23.200Z,42.02
2023-02-16T13:46:27.696Z,41.92
2023-02-16T13:51:39.955Z,42.15
2023-02-16T13:56:44.068Z,41.81
2023-02-16T14:01:47.313Z,41.53
2023-02-16T14:06:50.439Z,41.14
2023-02-16T14:12:05.655Z,41.23
2023-02-16T14:17:18.542Z,41.43
2023-02-16T14:22:22.993Z,41.94
2023-02-16T14:27:44.648Z,42.91
2023-02-16T14:32:48.748Z,43.07
2023-02-16T14:37:56.859Z,42.83
2023-02-16T14:43:04.817Z,42.97
2023-02-16T14:48:14.602Z,42.98
2023-02-16T14:53:51.291Z,43.08
2023-02-16T14:58:56.662Z,42.83
2023-02-16T15:04:00.080Z,42.72
2023-02-16T15:09:04.344Z,43.14
2023-02-16T15:14:09.963Z,43.06
2023-02-16T15:19:17.646Z,43.72
2023-02-16T15:24:24.429Z,43.52
2023-02-16T15:29:29.276Z,43.59
2023-02-16T15:34:34.746Z,43.66
2023-02-16T15:39:49.858Z,43.38
2023-02-16T15:45:00.369Z,44.10
2023-02-16T15:50:12.809Z,44.15
2023-02-16T15:55:15.579Z,44.29
2023-02-16T16:00:22.041Z,44.56
2023-02-16T16:05:26.108Z,44.71
2023-02-16T16:10:30.614Z,44.65
2023-02-16T16:15:37.971Z,45.05
2023-02-16T16:20:44.077Z,45.42
2023-02-16T16:25:47.777Z,45.55
2023-02-16T16:30:51.998Z,45.70
2023-02-16T16:35:54.851Z,45.53
2023-02-16T16:40:58.904Z,46.21
2023-02-16T16:46:14.013Z,46.45
2023-02-16T16:51:17.855Z,46.63
2023-02-16T16:56:20.774Z,47.03
2023-02-16T17:01:25.612Z,46.65
2023-02-16T17:06:28.439Z,46.86
2023-02-16T17:11:32.470Z,47.58
2023-02-16T17:16:38.594Z,50.17
2023-02-16T17:21:41.584Z,50.95
2023-02-16T17:26:44.360Z,50.46
2023-02-16T17:31:50.511Z,50.73
2023-02-16T17:36:53.543Z,50.39
2023-02-16T17:41:56.583Z,49.84
2023-02-16T17:47:00.888Z,49.59
2023-02-16T17:52:03.775Z,49.63
2023-02-16T17:57:06.741Z,49.78
2023-02-16T18:02:12.004Z,48.79
2023-02-16T18:07:14.967Z,48.90
2023-02-16T18:12:17.942Z,48.88
2023-02-16T18:17:22.084Z,48.83
2023-02-16T18:22:24.869Z,48.30
2023-02-16T18:27:29.404Z,48.02
2023-02-16T18:32:33.688Z,47.87
2023-02-16T18:37:36.725Z,47.48
2023-02-16T18:42:39.708Z,47.36
2023-02-16T18:47:45.093Z,47.25
2023-02-16T18:52:47.919Z,46.90
2023-02-16T18:57:50.842Z,46.84
2023-02-16T19:02:55.328Z,46.70
2023-02-16T19:07:58.272Z,46.36
2023-02-16T19:13:02.202Z,46.40
2023-02-16T19:18:06.786Z,46.33
2023-02-16T19:23:09.553Z,45.95
2023-02-16T19:28:12.323Z,46.20
2023-02-16T19:33:16.420Z,45.97
2023-02-16T19:38:19.349Z,45.70
2023-02-16T19:43:22.194Z,45.61
2023-02-16T19:48:26.369Z,45.58
2023-02-16T19:53:29.284Z,45.41
2023-02-16T19:58:32.206Z,45.46
2023-02-16T20:03:36.446Z,45.41
2023-02-16T20:08:39.227Z,45.16
2023-02-16T20:13:42.256Z,45.09
2023-02-16T20:18:46.563Z,44.94
2023-02-16T20:23:49.602Z,44.78
2023-02-16T20:28:52.521Z,44.80
2023-02-16T20:33:56.905Z,44.80
2023-02-16T20:38:59.715Z,44.81
2023-02-16T20:44:02.846Z,44.47
2023-02-16T20:49:06.968Z,44.45
2023-02-16T20:54:09.805Z,44.25
2023-02-16T20:59:13.275Z,44.46
2023-02-16T21:04:18.412Z,44.05
2023-02-16T21:09:21.220Z,44.06
2023-02-16T21:14:24.124Z,44.46
2023-02-16T21:19:28.397Z,44.23
2023-02-16T21:24:31.221Z,44.23
2023-02-16T21:29:33.994Z,44.08
2023-02-16T21:34:38.128Z,44.31
2023-02-16T21:39:58.252Z,44.04
2023-02-16T21:45:17.331Z,44.22
2023-02-16T21:50:21.427Z,44.34
2023-02-16T21:55:41.634Z,44.22
2023-02-16T22:00:44.975Z,43.94
2023-02-16T22:05:49.308Z,43.97
2023-02-16T22:10:52.059Z,43.89
2023-02-16T22:15:54.894Z,44.06
2023-02-16T22:21:02.708Z,44.03
2023-02-16T22:26:07.425Z,44.21
2023-02-16T22:31:10.595Z,44.22
2023-02-16T22:36:15.774Z,44.05
2023-02-16T22:41:18.743Z,44.17
2023-02-16T22:46:21.510Z,44.30
2023-02-16T22:51:27.647Z,44.40
2023-02-16T22:56:30.727Z,44.34
2023-02-16T23:01:33.562Z,44.08
2023-02-16T23:06:37.910Z,44.41
2023-02-16T23:11:40.720Z,44.32
2023-02-16T23:16:43.788Z,44.17
2023-02-16T23:21:47.994Z,44.18
2023-02-16T23:26:50.870Z,44.05
2023-02-16T23:31:53.773Z,44.15
2023-02-16T23:36:57.956Z,44.39
2023-02-16T23:42:00.867Z,44.26
2023-02-16T23:47:03.634Z,44.55
2023-02-16T23:52:07.753Z,44.71
2023-02-16T23:57:10.638Z,44.84
